createdAt,value
2022-08-07T00:00:51.333Z,14.13
2022-08-07T00:03:17.972Z,14.13
2022-08-07T00:05:45.292Z,14.09
2022-08-07T00:08:12.900Z,14.13
2022-08-07T00:10:47.880Z,13.93
2022-08-07T00:13:26.788Z,13.95
2022-08-07T00:15:55.251Z,13.93
2022-08-07T00:18:26.169Z,13.99
2022-08-07T00:20:56.779Z,14.01
2022-08-07T00:23:24.401Z,13.92
2022-08-07T00:26:00.237Z,13.87
2022-08-07T00:28:33.572Z,13.86
2022-08-07T00:31:12.799Z,13.80
2022-08-07T00:33:43.337Z,13.61
2022-08-07T00:36:14.107Z,13.61
2022-08-07T00:38:40.868Z,13.65
2022-08-07T00:41:09.952Z,13.67
2022-08-07T00:44:01.308Z,13.62
2022-08-07T00:46:27.701Z,13.58
2022-08-07T00:48:54.377Z,13.52
2022-08-07T00:51:21.551Z,13.50
2022-08-07T00:53:50.670Z,13.52
2022-08-07T00:56:23.355Z,13.48
2022-08-07T00:58:57.399Z,13.35
2022-08-07T01:01:24.228Z,13.40
2022-08-07T01:03:55.980Z,13.41
2022-08-07T01:06:27.243Z,13.35
2022-08-07T01:08:56.318Z,13.35
2022-08-07T01:12:09.882Z,13.34
2022-08-07T01:14:12.401Z,13.21
2022-08-07T01:16:43.034Z,13.24
2022-08-07T01:19:14.912Z,13.24
2022-08-07T01:21:48.096Z,13.27
2022-08-07T01:24:21.236Z,13.28
2022-08-07T01:26:51.594Z,13.20
2022-08-07T01:29:18.307Z,13.22
2022-08-07T01:31:48.226Z,13.22
2022-08-07T01:34:17.793Z,13.20
2022-08-07T01:36:52.888Z,13.15
2022-08-07T01:39:39.628Z,13.14
2022-08-07T01:42:38.917Z,13.04
2022-08-07T01:45:05.392Z,13.02
2022-08-07T01:48:18.926Z,13.03
2022-08-07T01:50:30.570Z,13.04
2022-08-07T01:53:00.105Z,13.02
2022-08-07T01:55:30.812Z,13.00
2022-08-07T01:58:27.470Z,12.92
2022-08-07T02:01:10.252Z,12.93
2022-08-07T02:03:50.299Z,12.91
2022-08-07T02:06:31.968Z,12.84
2022-08-07T02:09:03.765Z,12.87
2022-08-07T02:12:03.460Z,12.87
2022-08-07T02:14:40.166Z,12.82
2022-08-07T02:17:09.888Z,12.79
2022-08-07T02:20:04.937Z,12.73
2022-08-07T02:22:30.729Z,12.63
2022-08-07T02:24:58.690Z,12.56
2022-08-07T02:27:34.354Z,12.56
2022-08-07T02:30:03.626Z,12.54
2022-08-07T02:32:39.452Z,12.42
2022-08-07T02:35:11.017Z,12.38
2022-08-07T02:37:44.010Z,12.34
2022-08-07T02:40:30.977Z,12.34
2022-08-07T02:42:59.164Z,12.37
2022-08-07T02:45:58.029Z,12.40
2022-08-07T02:48:15.460Z,12.43
2022-08-07T02:50:44.531Z,12.44
2022-08-07T02:53:15.349Z,12.44
2022-08-07T02:56:02.540Z,12.40
2022-08-07T02:58:33.896Z,12.39
2022-08-07T03:01:03.047Z,12.36
2022-08-07T03:03:49.117Z,12.36
2022-08-07T03:06:25.516Z,12.35
2022-08-07T03:08:53.176Z,12.33
2022-08-07T03:11:21.092Z,12.34
2022-08-07T03:14:01.439Z,12.29
2022-08-07T03:16:30.388Z,12.27
2022-08-07T03:18:59.155Z,12.24
2022-08-07T03:21:26.816Z,12.23
2022-08-07T03:24:19.469Z,12.27
2022-08-07T03:26:57.889Z,12.26
2022-08-07T03:29:33.947Z,12.18
2022-08-07T03:32:07.312Z,12.19
2022-08-07T03:34:47.387Z,12.13
2022-08-07T03:37:32.857Z,12.14
2022-08-07T03:40:16.677Z,12.09
2022-08-07T03:42:44.429Z,12.06
2022-08-07T03:45:11.919Z,12.02
2022-08-07T03:47:48.115Z,12.00
2022-08-07T03:50:23.195Z,12.01
2022-08-07T03:52:51.986Z,11.95
2022-08-07T03:55:18.691Z,11.94
2022-08-07T03:58:34.396Z,11.93
2022-08-07T04:00:36.396Z,11.93
2022-08-07T04:03:04.978Z,11.92
2022-08-07T04:05:40.914Z,11.90
2022-08-07T04:08:16.135Z,11.88
2022-08-07T04:10:54.260Z,11.90
2022-08-07T04:14:11.008Z,11.87
2022-08-07T04:16:31.499Z,11.89
2022-08-07T04:19:01.406Z,11.86
2022-08-07T04:21:33.339Z,11.75
2022-08-07T04:24:05.960Z,11.72
2022-08-07T04:26:34.655Z,11.71
2022-08-07T04:29:03.161Z,11.72
2022-08-07T04:31:38.510Z,11.69
2022-08-07T04:34:27.399Z,11.68
2022-08-07T04:37:00.519Z,11.66
2022-08-07T04:39:35.461Z,11.71
2022-08-07T04:42:03.859Z,11.79
2022-08-07T04:44:30.433Z,11.80
2022-08-07T04:47:09.781Z,11.86
2022-08-07T04:49:57.871Z,11.92
2022-08-07T04:52:51.246Z,11.99
2022-08-07T04:58:12.541Z,11.99
2022-08-07T04:58:49.724Z,11.99
2022-08-07T05:01:47.534Z,12.03
2022-08-07T05:04:44.023Z,12.07
2022-08-07T05:07:36.833Z,12.16
2022-08-07T05:10:24.589Z,12.26
2022-08-07T05:13:10.122Z,12.30
2022-08-07T05:15:53.563Z,12.38
2022-08-07T05:18:25.672Z,12.42
2022-08-07T05:20:57.026Z,12.50
2022-08-07T05:23:35.509Z,12.63
2022-08-07T05:26:13.822Z,12.79
2022-08-07T05:28:50.212Z,12.95
2022-08-07T05:31:20.155Z,13.17
2022-08-07T05:34:00.940Z,13.86
2022-08-07T05:36:35.769Z,14.57
2022-08-07T05:40:03.754Z,15.19
2022-08-07T05:42:00.717Z,17.16
2022-08-07T05:44:30.990Z,18.63
2022-08-07T05:47:00.297Z,20.17
2022-08-07T05:49:40.861Z,20.06
2022-08-07T05:52:08.477Z,18.62
2022-08-07T05:54:53.147Z,18.49
2022-08-07T05:57:26.777Z,19.17
2022-08-07T05:59:58.924Z,18.80
2022-08-07T06:02:29.592Z,19.12
2022-08-07T06:05:03.424Z,21.00
2022-08-07T06:08:14.537Z,23.02
2022-08-07T06:10:18.797Z,24.39
2022-08-07T06:12:47.275Z,23.86
2022-08-07T06:15:16.585Z,22.53
2022-08-07T06:17:53.480Z,23.36
2022-08-07T06:20:49.976Z,25.15
2022-08-07T06:23:46.034Z,26.01
2022-08-07T06:25:59.856Z,26.80
2022-08-07T06:28:28.455Z,26.80
2022-08-07T06:30:58.266Z,26.02
2022-08-07T06:33:25.726Z,26.52
2022-08-07T06:36:12.138Z,28.18
2022-08-07T06:38:38.979Z,29.51
2022-08-07T06:42:00.640Z,31.02
2022-08-07T06:44:31.087Z,31.21
2022-08-07T06:47:10.134Z,31.58
2022-08-07T06:49:51.721Z,32.25
2022-08-07T06:52:31.615Z,32.85
2022-08-07T06:55:31.288Z,33.02
2022-08-07T06:58:00.749Z,32.90
2022-08-07T07:00:31.015Z,31.27
2022-08-07T07:03:01.201Z,30.50
2022-08-07T07:06:03.579Z,29.02
2022-08-07T07:08:27.035Z,26.75
2022-08-07T07:10:56.446Z,25.38
2022-08-07T07:13:56.709Z,23.88
2022-08-07T07:16:30.879Z,22.89
2022-08-07T07:19:54.439Z,22.32
2022-08-07T07:22:11.727Z,21.78
2022-08-07T07:24:42.848Z,21.61
2022-08-07T07:27:11.586Z,21.39
2022-08-07T07:29:56.880Z,21.22
2022-08-07T07:32:32.056Z,20.98
2022-08-07T07:35:04.022Z,20.85
2022-08-07T07:37:45.216Z,21.07
2022-08-07T07:40:19.523Z,23.50
2022-08-07T07:42:54.250Z,25.85
2022-08-07T07:46:37.827Z,27.41
2022-08-07T07:48:24.140Z,28.61
2022-08-07T07:51:08.064Z,28.91
2022-08-07T07:53:44.744Z,28.98
2022-08-07T07:56:19.593Z,29.23
2022-08-07T07:59:08.133Z,29.57
2022-08-07T08:02:04.061Z,29.61
2022-08-07T08:04:29.107Z,29.57
2022-08-07T08:07:00.757Z,29.38
2022-08-07T08:09:33.251Z,29.35
2022-08-07T08:12:43.189Z,29.71
2022-08-07T08:15:06.988Z,30.05
2022-08-07T08:17:57.501Z,30.25
2022-08-07T08:20:27.323Z,29.70
2022-08-07T08:23:18.534Z,29.89
2022-08-07T08:26:07.916Z,30.03
2022-08-07T08:28:43.443Z,30.34
2022-08-07T08:31:22.820Z,30.46
2022-08-07T08:33:59.153Z,30.19
2022-08-07T08:36:30.484Z,30.11
2022-08-07T08:39:02.128Z,29.56
2022-08-07T08:41:58.376Z,29.79
2022-08-07T08:44:46.901Z,29.84
2022-08-07T08:47:31.706Z,30.66
2022-08-07T08:50:42.253Z,30.58
2022-08-07T08:53:26.323Z,31.03
2022-08-07T08:56:31.358Z,31.42
2022-08-07T08:59:20.077Z,31.61
2022-08-07T09:02:00.445Z,31.28
2022-08-07T09:04:51.883Z,30.73
2022-08-07T09:07:34.016Z,30.82
2022-08-07T09:10:36.080Z,30.81
2022-08-07T09:13:14.861Z,31.09
2022-08-07T09:16:22.202Z,31.45
2022-08-07T09:18:58.868Z,31.86
2022-08-07T09:21:34.000Z,32.05
2022-08-07T09:24:56.089Z,31.89
2022-08-07T09:28:00.758Z,31.24
2022-08-07T09:31:19.657Z,30.68
2022-08-07T09:34:06.726Z,30.85
2022-08-07T09:37:06.407Z,31.65
2022-08-07T09:40:10.555Z,31.74
2022-08-07T09:42:52.779Z,31.71
2022-08-07T09:47:50.580Z,31.29
2022-08-07T09:49:59.796Z,31.09
2022-08-07T09:52:16.788Z,30.93
2022-08-07T09:54:52.745Z,31.22
2022-08-07T09:57:46.511Z,30.73
2022-08-07T10:00:16.151Z,31.04
2022-08-07T10:04:06.049Z,31.00
2022-08-07T10:06:27.363Z,31.59
2022-08-07T10:09:07.105Z,32.03
2022-08-07T10:12:00.345Z,32.04
2022-08-07T10:15:07.778Z,31.65
2022-08-07T10:18:16.623Z,31.54
2022-08-07T10:21:19.966Z,31.92
2022-08-07T10:24:23.601Z,32.53
2022-08-07T10:27:20.151Z,32.16
2022-08-07T10:29:58.646Z,31.63
2022-08-07T10:32:59.667Z,31.20
2022-08-07T10:35:56.562Z,30.64
2022-08-07T10:38:35.963Z,29.98
2022-08-07T10:41:52.224Z,30.15
2022-08-07T10:44:52.389Z,30.93
2022-08-07T10:48:12.506Z,31.78
2022-08-07T10:50:50.685Z,31.47
2022-08-07T10:53:44.793Z,31.14
2022-08-07T10:56:20.696Z,31.91
2022-08-07T10:59:22.027Z,32.25
2022-08-07T11:02:04.700Z,31.85
2022-08-07T11:04:52.376Z,31.37
2022-08-07T11:07:59.182Z,31.93
2022-08-07T11:10:34.762Z,30.85
2022-08-07T11:14:45.194Z,31.25
2022-08-07T11:16:41.026Z,31.93
2022-08-07T11:19:27.315Z,32.02
2022-08-07T11:22:26.354Z,31.51
2022-08-07T11:25:11.562Z,31.85
2022-08-07T11:28:04.404Z,31.94
2022-08-07T11:30:42.228Z,31.33
2022-08-07T11:33:59.140Z,30.88
2022-08-07T11:36:35.842Z,30.08
2022-08-07T11:39:59.211Z,29.46
2022-08-07T11:42:40.950Z,28.67
2022-08-07T11:45:55.774Z,27.73
2022-08-07T11:49:04.405Z,27.75
2022-08-07T11:51:46.939Z,27.89
2022-08-07T11:54:54.793Z,28.16
2022-08-07T11:58:00.614Z,28.54
2022-08-07T12:01:20.197Z,27.84
2022-08-07T12:04:17.558Z,29.10
2022-08-07T12:06:51.468Z,29.92
2022-08-07T12:09:34.583Z,29.78
2022-08-07T12:12:09.669Z,29.35
2022-08-07T12:14:56.379Z,29.55
2022-08-07T12:17:39.613Z,29.92
2022-08-07T12:20:30.324Z,29.73
2022-08-07T12:23:09.106Z,29.91
2022-08-07T12:26:21.597Z,30.03
2022-08-07T12:29:03.703Z,30.43
2022-08-07T12:32:04.763Z,29.35
2022-08-07T12:34:36.910Z,29.72
2022-08-07T12:37:27.949Z,29.73
2022-08-07T12:39:57.866Z,29.16
2022-08-07T12:42:28.553Z,29.01
2022-08-07T12:45:04.492Z,29.33
2022-08-07T12:47:45.545Z,28.86
2022-08-07T12:50:39.081Z,29.00
2022-08-07T12:54:02.686Z,28.62
2022-08-07T12:56:23.955Z,29.60
2022-08-07T12:58:58.019Z,30.09
2022-08-07T13:01:32.265Z,30.71
2022-08-07T13:04:05.553Z,30.52
2022-08-07T13:07:00.775Z,30.79
2022-08-07T13:10:19.633Z,30.77
2022-08-07T13:12:41.701Z,30.67
2022-08-07T13:15:39.770Z,30.70
2022-08-07T13:18:26.399Z,30.36
2022-08-07T13:21:02.765Z,30.11
2022-08-07T13:24:02.186Z,30.05
2022-08-07T13:26:34.522Z,30.49
2022-08-07T13:29:12.454Z,30.68
2022-08-07T13:31:57.936Z,30.87
2022-08-07T13:34:35.945Z,30.45
2022-08-07T13:37:38.289Z,30.56
2022-08-07T13:40:34.846Z,30.66
2022-08-07T13:43:13.376Z,31.08
2022-08-07T13:46:10.766Z,31.45
2022-08-07T13:48:34.448Z,31.64
2022-08-07T13:51:27.123Z,31.79
2022-08-07T13:54:00.526Z,31.52
2022-08-07T13:56:35.548Z,30.54
2022-08-07T13:59:20.372Z,30.56
2022-08-07T14:02:03.485Z,31.22
2022-08-07T14:04:36.118Z,30.97
2022-08-07T14:07:09.734Z,30.50
2022-08-07T14:10:02.988Z,30.77
2022-08-07T14:12:36.134Z,30.74
2022-08-07T14:15:22.389Z,30.65
2022-08-07T14:18:15.712Z,31.07
2022-08-07T14:20:49.281Z,30.78
2022-08-07T14:23:58.586Z,30.33
2022-08-07T14:26:30.584Z,30.84
2022-08-07T14:32:00.078Z,31.29
2022-08-07T14:34:30.228Z,31.42
2022-08-07T14:37:02.034Z,31.58
2022-08-07T14:40:17.599Z,31.38
2022-08-07T14:42:31.354Z,31.21
2022-08-07T14:45:21.934Z,31.04
2022-08-07T14:47:49.354Z,30.75
2022-08-07T14:50:20.457Z,30.37
2022-08-07T14:52:50.394Z,30.24
2022-08-07T14:55:18.420Z,30.45
2022-08-07T14:57:58.287Z,30.76
2022-08-07T15:00:31.393Z,30.64
2022-08-07T15:03:19.339Z,30.48
2022-08-07T15:08:49.718Z,30.02
2022-08-07T15:11:51.098Z,30.51
2022-08-07T15:14:15.294Z,30.53
2022-08-07T15:16:55.094Z,30.02
2022-08-07T15:20:30.567Z,29.32
2022-08-07T15:22:23.067Z,29.81
2022-08-07T15:33:42.600Z,29.53
2022-08-07T15:36:10.909Z,29.85
2022-08-07T15:38:51.878Z,29.41
2022-08-07T15:42:44.358Z,29.19
2022-08-07T15:44:21.011Z,29.41
2022-08-07T15:46:58.674Z,29.57
2022-08-07T15:50:05.399Z,29.31
2022-08-07T15:52:30.577Z,28.90
2022-08-07T15:55:02.663Z,28.77
2022-08-07T15:57:39.595Z,28.54
2022-08-07T16:00:31.195Z,28.58
2022-08-07T16:03:04.628Z,28.35
2022-08-07T16:05:31.715Z,27.87
2022-08-07T16:08:31.706Z,28.12
2022-08-07T16:10:59.772Z,28.77
2022-08-07T16:13:58.524Z,28.86
2022-08-07T16:16:47.603Z,28.35
2022-08-07T16:19:59.238Z,28.65
2022-08-07T16:22:33.626Z,28.92
2022-08-07T16:25:22.991Z,29.06
2022-08-07T16:30:08.573Z,28.85
2022-08-07T16:31:51.816Z,27.93
2022-08-07T16:34:10.517Z,27.87
2022-08-07T16:38:04.571Z,28.07
2022-08-07T16:40:28.868Z,28.11
2022-08-07T16:43:18.855Z,27.74
2022-08-07T16:47:04.672Z,27.12
2022-08-07T16:50:27.790Z,26.89
2022-08-07T16:52:51.908Z,26.93
2022-08-07T16:55:13.037Z,27.17
2022-08-07T16:58:04.127Z,27.41
2022-08-07T17:00:41.088Z,27.61
2022-08-07T17:03:17.724Z,27.48
2022-08-07T17:06:31.499Z,27.07
2022-08-07T17:09:15.786Z,27.01
2022-08-07T17:12:34.235Z,27.04
2022-08-07T17:15:15.742Z,26.80
2022-08-07T17:17:48.470Z,26.50
2022-08-07T17:20:41.708Z,26.32
2022-08-07T17:23:32.389Z,26.07
2022-08-07T17:26:30.014Z,25.75
2022-08-07T17:28:57.783Z,25.82
2022-08-07T17:32:28.312Z,25.95
2022-08-07T17:35:50.579Z,25.89
2022-08-07T17:38:08.202Z,25.81
2022-08-07T17:40:56.456Z,25.73
2022-08-07T17:44:00.976Z,25.66
2022-08-07T17:46:34.505Z,25.74
2022-08-07T17:49:14.098Z,25.78
2022-08-07T17:52:30.590Z,25.71
2022-08-07T17:55:54.941Z,25.58
2022-08-07T17:58:30.834Z,25.51
2022-08-07T18:01:02.704Z,25.53
2022-08-07T18:04:07.048Z,25.51
2022-08-07T18:07:20.521Z,25.33
2022-08-07T18:10:06.824Z,25.10
2022-08-07T18:13:10.947Z,24.92
2022-08-07T18:16:31.200Z,24.55
2022-08-07T18:21:10.313Z,24.29
2022-08-07T18:22:15.093Z,24.16
2022-08-07T18:24:53.182Z,24.08
2022-08-07T18:27:44.791Z,23.98
2022-08-07T18:30:30.746Z,23.81
2022-08-07T18:33:27.742Z,23.65
2022-08-07T18:36:33.578Z,23.55
2022-08-07T18:40:08.709Z,23.39
2022-08-07T18:42:16.337Z,23.07
2022-08-07T18:45:43.560Z,22.95
2022-08-07T18:50:05.356Z,22.86
2022-08-07T18:52:37.946Z,22.64
2022-08-07T18:54:27.671Z,22.50
2022-08-07T18:57:29.300Z,22.45
2022-08-07T19:00:32.612Z,22.40
2022-08-07T19:03:16.138Z,22.34
2022-08-07T19:06:09.366Z,22.20
2022-08-07T19:08:56.199Z,22.13
2022-08-07T19:12:04.922Z,22.01
2022-08-07T19:14:53.741Z,21.98
2022-08-07T19:17:55.857Z,21.92
2022-08-07T19:20:29.032Z,21.79
2022-08-07T19:23:21.380Z,21.68
2022-08-07T19:26:25.067Z,21.55
2022-08-07T19:30:58.884Z,21.44
2022-08-07T19:32:10.855Z,21.31
2022-08-07T19:34:41.867Z,21.18
2022-08-07T19:37:17.390Z,21.09
2022-08-07T19:40:01.632Z,20.99
2022-08-07T19:42:31.480Z,20.89
2022-08-07T19:45:08.234Z,20.79
2022-08-07T19:47:38.586Z,20.74
2022-08-07T19:50:44.467Z,20.72
2022-08-07T19:52:58.675Z,20.68
2022-08-07T19:55:57.016Z,20.60
2022-08-07T19:58:16.150Z,20.48
2022-08-07T20:00:53.056Z,20.38
2022-08-07T20:03:34.467Z,20.28
2022-08-07T20:06:04.954Z,20.23
2022-08-07T20:08:37.586Z,20.17
2022-08-07T20:11:15.223Z,20.11
2022-08-07T20:14:03.024Z,20.02
2022-08-07T20:16:36.859Z,19.96
2022-08-07T20:19:10.650Z,19.92
2022-08-07T20:21:42.273Z,19.84
2022-08-07T20:24:21.928Z,19.81
2022-08-07T20:26:52.087Z,19.73
2022-08-07T20:29:49.268Z,19.68
2022-08-07T20:32:25.598Z,19.64
2022-08-07T20:34:56.050Z,19.64
2022-08-07T20:37:34.012Z,19.60
2022-08-07T20:40:06.066Z,19.53
2022-08-07T20:42:57.905Z,19.43
2022-08-07T20:45:33.129Z,19.38
2022-08-07T20:48:28.372Z,19.29
2022-08-07T20:51:00.021Z,19.23
2022-08-07T20:54:04.068Z,19.17
2022-08-07T20:56:16.420Z,19.08
2022-08-07T20:58:48.092Z,18.97
2022-08-07T21:01:19.907Z,18.91
2022-08-07T21:04:18.707Z,18.81
2022-08-07T21:06:46.595Z,18.76
2022-08-07T21:09:24.617Z,18.74
2022-08-07T21:11:57.533Z,18.70
2022-08-07T21:14:32.611Z,18.66
2022-08-07T21:18:01.073Z,18.57
2022-08-07T21:20:04.510Z,18.55
2022-08-07T21:22:51.132Z,18.51
2022-08-07T21:25:19.604Z,18.46
2022-08-07T21:28:10.638Z,18.36
2022-08-07T21:30:46.870Z,18.29
2022-08-07T21:33:41.793Z,18.21
2022-08-07T21:36:31.391Z,18.01
2022-08-07T21:39:45.292Z,17.92
2022-08-07T21:42:42.495Z,17.88
2022-08-07T21:46:07.528Z,17.84
2022-08-07T21:48:28.452Z,17.74
2022-08-07T21:51:20.057Z,17.72
2022-08-07T21:53:54.006Z,17.63
2022-08-07T21:56:49.334Z,17.59
2022-08-07T22:00:02.709Z,17.60
2022-08-07T22:02:27.167Z,17.60
2022-08-07T22:04:55.428Z,17.58
2022-08-07T22:07:31.729Z,17.56
2022-08-07T22:10:20.062Z,17.51
2022-08-07T22:12:57.111Z,17.46
2022-08-07T22:16:38.800Z,17.35
2022-08-07T22:18:32.880Z,17.25
2022-08-07T22:21:11.618Z,17.21
2022-08-07T22:23:47.185Z,17.20
2022-08-07T22:26:21.772Z,17.17
2022-08-07T22:29:08.742Z,17.10
2022-08-07T22:32:05.523Z,17.01
2022-08-07T22:34:49.761Z,16.90
2022-08-07T22:38:03.091Z,16.84
2022-08-07T22:40:59.963Z,16.77
2022-08-07T22:43:33.999Z,16.70
2022-08-07T22:46:42.871Z,16.63
2022-08-07T22:49:39.632Z,16.60
2022-08-07T22:52:39.985Z,16.61
2022-08-07T22:55:41.520Z,16.57
2022-08-07T22:58:19.869Z,16.53
2022-08-07T23:01:09.270Z,16.50
2022-08-07T23:04:12.110Z,16.48
2022-08-07T23:07:39.714Z,16.45
2022-08-07T23:10:42.095Z,16.44
2022-08-07T23:13:29.104Z,16.43
2022-08-07T23:16:46.723Z,16.39
2022-08-07T23:20:09.559Z,16.28
2022-08-07T23:22:55.577Z,16.27
2022-08-07T23:25:52.801Z,16.22
2022-08-07T23:28:28.581Z,16.11
2022-08-07T23:31:13.844Z,16.11
2022-08-07T23:34:35.915Z,16.03
2022-08-07T23:37:22.591Z,15.93
2022-08-07T23:40:12.920Z,15.86
2022-08-07T23:42:54.721Z,15.80
2022-08-07T23:45:33.157Z,15.82
2022-08-07T23:48:28.684Z,15.84
2022-08-07T23:53:01.140Z,15.84
2022-08-07T23:54:44.040Z,15.75
2022-08-07T23:57:30.948Z,15.76
